PWSweather.com
Personal Weather Stations
Station Observations
SD92115WX
El Cerrito Stoneybluff, San Diego, CA 92115

El Cerrito StoneybluffSan Diego, CA 92115

Lat: 32.754096, Lon: -117.066705

Elevation: 420

Station Type: Davis Vantage Vue

http://stoneybluff.com

High Low Average
Temperature 60.4°F15.8°C 54.3°F12.4°C 57.1°F13.9°C
Dew Point 57.4°F14.1°C 52.3°F11.3°C 54.8°F12.7°C
Winds 4.7 mph 7.6 kmh Calm Calm 2.0 mph SSW3.2 kmh SSW
Wind Gusts 11.6 mph18.7 kmh -- 4.0 mph6.4 kmh
Humidity 96% 79% 92%
Pressure 29.97 in1014.9 mb 29.87 in1011.5 mb -
Precipitation 0.13 in3.3 mm - -
Hour Temp Dew Point Humidity Winds Wind Gusts Pressure Precip Precip Rate Daily Precip Total
12:03 AM 54.3°F12.4°C 52.3°F11.3°C 93% Calm Calm -- 29.88 in1011.9 mb 0.00 in0.0 mm 0.00 in0.0 mm 0.00 in0.0 mm
12:08 AM 54.3°F12.4°C 52.3°F11.3°C 93% Calm Calm -- 29.88 in1011.9 mb 0.00 in0.0 mm 0.00 in0.0 mm 0.00 in0.0 mm
12:13 AM 54.3°F12.4°C 52.3°F11.3°C 93% Calm Calm -- 29.88 in1011.9 mb 0.00 in0.0 mm 0.00 in0.0 mm 0.00 in0.0 mm
12:18 AM 54.3°F12.4°C 52.7°F11.5°C 94% Calm Calm -- 29.88 in1011.9 mb 0.00 in0.0 mm 0.00 in0.0 mm 0.00 in0.0 mm
12:23 AM 54.5°F12.5°C 52.9°F11.6°C 94% Calm Calm -- 29.87 in1011.5 mb 0.00 in0.0 mm 0.00 in0.0 mm 0.00 in0.0 mm
12:28 AM 54.7°F12.6°C 53.1°F11.7°C 94% Calm Calm -- 29.88 in1011.9 mb 0.00 in0.0 mm 0.00 in0.0 mm 0.00 in0.0 mm
12:33 AM 54.7°F12.6°C 53.1°F11.7°C 94% Calm Calm -- 29.88 in1011.9 mb 0.00 in0.0 mm 0.00 in0.0 mm 0.00 in0.0 mm
12:38 AM 54.7°F12.6°C 53.1°F11.7°C 94% Calm Calm -- 29.88 in1011.9 mb 0.00 in0.0 mm 0.00 in0.0 mm 0.00 in0.0 mm
12:43 AM 54.9°F12.7°C 53.2°F11.8°C 94% Calm Calm -- 29.88 in1011.9 mb 0.00 in0.0 mm 0.00 in0.0 mm 0.00 in0.0 mm
12:48 AM 55.0°F12.8°C 53.4°F11.9°C 94% Calm Calm -- 29.87 in1011.5 mb 0.00 in0.0 mm 0.00 in0.0 mm 0.00 in0.0 mm
12:53 AM 55.0°F12.8°C 53.4°F11.9°C 94% Calm Calm -- 29.88 in1011.9 mb 0.00 in0.0 mm 0.00 in0.0 mm 0.00 in0.0 mm
12:58 AM 55.2°F12.9°C 53.6°F12.0°C 94% Calm Calm -- 29.87 in1011.5 mb 0.00 in0.0 mm 0.00 in0.0 mm 0.00 in0.0 mm
01:03 AM 55.2°F12.9°C 53.6°F12.0°C 94% Calm Calm -- 29.87 in1011.5 mb 0.00 in0.0 mm 0.00 in0.0 mm 0.00 in0.0 mm
01:08 AM 55.2°F12.9°C 53.6°F12.0°C 94% Calm Calm -- 29.88 in1011.9 mb 0.00 in0.0 mm 0.00 in0.0 mm 0.00 in0.0 mm
01:13 AM 55.2°F12.9°C 53.6°F12.0°C 94% Calm Calm -- 29.88 in1011.9 mb 0.00 in0.0 mm 0.00 in0.0 mm 0.00 in0.0 mm
01:18 AM 55.2°F12.9°C 53.6°F12.0°C 94% Calm Calm -- 29.88 in1011.9 mb 0.00 in0.0 mm 0.00 in0.0 mm 0.00 in0.0 mm
01:23 AM 55.2°F12.9°C 53.6°F12.0°C 94% Calm Calm -- 29.87 in1011.5 mb 0.00 in0.0 mm 0.00 in0.0 mm 0.00 in0.0 mm
01:28 AM 55.4°F13.0°C 53.8°F12.1°C 94% Calm Calm -- 29.87 in1011.5 mb 0.00 in0.0 mm 0.00 in0.0 mm 0.00 in0.0 mm
01:33 AM 55.4°F13.0°C 53.8°F12.1°C 94% Calm Calm -- 29.88 in1011.9 mb 0.00 in0.0 mm 0.00 in0.0 mm 0.00 in0.0 mm
01:38 AM 55.4°F13.0°C 53.8°F12.1°C 94% Calm Calm -- 29.87 in1011.5 mb 0.00 in0.0 mm 0.00 in0.0 mm 0.00 in0.0 mm
01:43 AM 55.6°F13.1°C 54.0°F12.2°C 94% Calm Calm -- 29.87 in1011.5 mb 0.00 in0.0 mm 0.00 in0.0 mm 0.00 in0.0 mm
01:48 AM 55.6°F13.1°C 54.0°F12.2°C 94% Calm Calm -- 29.88 in1011.9 mb 0.00 in0.0 mm 0.00 in0.0 mm 0.00 in0.0 mm
01:53 AM 55.6°F13.1°C 54.0°F12.2°C 94% 1.3 mph SE2.1 kmh SE 2.0 mph3.2 kmh 29.88 in1011.9 mb 0.00 in0.0 mm 0.00 in0.0 mm 0.00 in0.0 mm
01:58 AM 55.8°F13.2°C 54.1°F12.3°C 94% 0.2 mph SSW0.3 kmh SSW 1.1 mph1.8 kmh 29.88 in1011.9 mb 0.00 in0.0 mm 0.00 in0.0 mm 0.00 in0.0 mm
02:03 AM 55.8°F13.2°C 54.1°F12.3°C 94% 0.9 mph SW1.4 kmh SW 4.3 mph6.9 kmh 29.88 in1011.9 mb 0.00 in0.0 mm 0.00 in0.0 mm 0.00 in0.0 mm
02:08 AM 55.6°F13.1°C 54.0°F12.2°C 94% 1.1 mph SW1.8 kmh SW 2.0 mph3.2 kmh 29.88 in1011.9 mb 0.00 in0.0 mm 0.00 in0.0 mm 0.01 in0.3 mm
02:13 AM 55.6°F13.1°C 54.0°F12.2°C 94% Calm Calm 2.0 mph3.2 kmh 29.88 in1011.9 mb 0.01 in0.3 mm 0.12 in3.0 mm 0.01 in0.3 mm
02:18 AM 55.6°F13.1°C 54.0°F12.2°C 94% Calm Calm 1.1 mph1.8 kmh 29.88 in1011.9 mb 0.01 in0.3 mm 0.00 in0.0 mm 0.01 in0.3 mm
02:23 AM 55.6°F13.1°C 54.0°F12.2°C 94% Calm Calm 1.1 mph1.8 kmh 29.88 in1011.9 mb 0.01 in0.3 mm 0.00 in0.0 mm 0.01 in0.3 mm
02:28 AM 55.6°F13.1°C 54.0°F12.2°C 94% Calm Calm 1.1 mph1.8 kmh 29.88 in1011.9 mb 0.02 in0.5 mm 0.12 in3.0 mm 0.02 in0.5 mm
02:33 AM 55.6°F13.1°C 54.0°F12.2°C 94% Calm Calm 1.1 mph1.8 kmh 29.88 in1011.9 mb 0.02 in0.5 mm 0.00 in0.0 mm 0.02 in0.5 mm
02:38 AM 55.6°F13.1°C 54.0°F12.2°C 94% 0.7 mph SE1.1 kmh SE 3.1 mph5.0 kmh 29.88 in1011.9 mb 0.02 in0.5 mm 0.00 in0.0 mm 0.02 in0.5 mm
02:43 AM 55.4°F13.0°C 53.8°F12.1°C 94% Calm Calm 2.0 mph3.2 kmh 29.88 in1011.9 mb 0.02 in0.5 mm 0.00 in0.0 mm 0.02 in0.5 mm
02:48 AM 55.4°F13.0°C 53.8°F12.1°C 94% 0.9 mph SE1.4 kmh SE 4.3 mph6.9 kmh 29.88 in1011.9 mb 0.03 in0.8 mm 0.12 in3.0 mm 0.03 in0.8 mm
02:53 AM 55.2°F12.9°C 53.6°F12.0°C 94% 1.1 mph SSE1.8 kmh SSE 3.1 mph5.0 kmh 29.88 in1011.9 mb 0.03 in0.8 mm 0.00 in0.0 mm 0.03 in0.8 mm
02:58 AM 55.2°F12.9°C 53.6°F12.0°C 94% 0.2 mph SE0.3 kmh SE 2.0 mph3.2 kmh 29.88 in1011.9 mb 0.04 in1.0 mm 0.12 in3.0 mm 0.04 in1.0 mm
03:03 AM 55.2°F12.9°C 53.6°F12.0°C 94% Calm Calm -- 29.88 in1011.9 mb 0.04 in1.0 mm 0.00 in0.0 mm 0.04 in1.0 mm
03:08 AM 55.2°F12.9°C 53.6°F12.0°C 94% Calm Calm -- 29.88 in1011.9 mb 0.04 in1.0 mm 0.00 in0.0 mm 0.04 in1.0 mm
03:13 AM 55.2°F12.9°C 53.6°F12.0°C 94% Calm Calm -- 29.88 in1011.9 mb 0.03 in0.8 mm 0.00 in0.0 mm 0.04 in1.0 mm
03:18 AM 55.2°F12.9°C 53.8°F12.1°C 95% Calm Calm -- 29.88 in1011.9 mb 0.03 in0.8 mm 0.00 in0.0 mm 0.04 in1.0 mm
03:23 AM 55.2°F12.9°C 53.8°F12.1°C 95% Calm Calm -- 29.88 in1011.9 mb 0.03 in0.8 mm 0.00 in0.0 mm 0.04 in1.0 mm
03:28 AM 55.2°F12.9°C 53.8°F12.1°C 95% Calm Calm -- 29.88 in1011.9 mb 0.02 in0.5 mm 0.00 in0.0 mm 0.04 in1.0 mm
03:33 AM 55.2°F12.9°C 53.8°F12.1°C 95% Calm Calm -- 29.88 in1011.9 mb 0.02 in0.5 mm 0.00 in0.0 mm 0.04 in1.0 mm
03:38 AM 55.2°F12.9°C 53.8°F12.1°C 95% Calm Calm -- 29.88 in1011.9 mb 0.02 in0.5 mm 0.00 in0.0 mm 0.04 in1.0 mm
03:43 AM 55.4°F13.0°C 54.0°F12.2°C 95% Calm Calm -- 29.88 in1011.9 mb 0.02 in0.5 mm 0.00 in0.0 mm 0.04 in1.0 mm
03:48 AM 55.4°F13.0°C 54.0°F12.2°C 95% Calm Calm -- 29.88 in1011.9 mb 0.01 in0.3 mm 0.00 in0.0 mm 0.04 in1.0 mm
03:53 AM 55.4°F13.0°C 54.0°F12.2°C 95% Calm Calm -- 29.88 in1011.9 mb 0.01 in0.3 mm 0.00 in0.0 mm 0.04 in1.0 mm
03:58 AM 55.4°F13.0°C 54.0°F12.2°C 95% Calm Calm -- 29.88 in1011.9 mb 0.00 in0.0 mm 0.00 in0.0 mm 0.04 in1.0 mm
04:03 AM 55.2°F12.9°C 53.8°F12.1°C 95% Calm Calm -- 29.89 in1012.2 mb 0.00 in0.0 mm 0.00 in0.0 mm 0.04 in1.0 mm
04:08 AM 55.4°F13.0°C 54.0°F12.2°C 95% Calm Calm -- 29.88 in1011.9 mb 0.01 in0.3 mm 0.12 in3.0 mm 0.05 in1.3 mm
04:13 AM 55.4°F13.0°C 54.0°F12.2°C 95% Calm Calm -- 29.88 in1011.9 mb 0.01 in0.3 mm 0.00 in0.0 mm 0.05 in1.3 mm
04:18 AM 55.4°F13.0°C 54.0°F12.2°C 95% 0.2 mph SSE0.3 kmh SSE 2.0 mph3.2 kmh 29.89 in1012.2 mb 0.01 in0.3 mm 0.00 in0.0 mm 0.05 in1.3 mm
04:23 AM 55.4°F13.0°C 54.0°F12.2°C 95% Calm Calm -- 29.88 in1011.9 mb 0.01 in0.3 mm 0.00 in0.0 mm 0.05 in1.3 mm
04:28 AM 55.4°F13.0°C 54.0°F12.2°C 95% Calm Calm -- 29.89 in1012.2 mb 0.01 in0.3 mm 0.00 in0.0 mm 0.05 in1.3 mm
04:33 AM 55.4°F13.0°C 54.0°F12.2°C 95% Calm Calm 2.0 mph3.2 kmh 29.88 in1011.9 mb 0.01 in0.3 mm 0.00 in0.0 mm 0.05 in1.3 mm
04:38 AM 55.4°F13.0°C 54.0°F12.2°C 95% Calm Calm -- 29.88 in1011.9 mb 0.01 in0.3 mm 0.00 in0.0 mm 0.05 in1.3 mm
04:43 AM 55.2°F12.9°C 53.8°F12.1°C 95% Calm Calm -- 29.89 in1012.2 mb 0.01 in0.3 mm 0.00 in0.0 mm 0.05 in1.3 mm
04:48 AM 55.2°F12.9°C 53.8°F12.1°C 95% Calm Calm -- 29.89 in1012.2 mb 0.01 in0.3 mm 0.00 in0.0 mm 0.05 in1.3 mm
04:53 AM 55.2°F12.9°C 53.8°F12.1°C 95% Calm Calm -- 29.89 in1012.2 mb 0.01 in0.3 mm 0.00 in0.0 mm 0.05 in1.3 mm
04:58 AM 55.2°F12.9°C 53.8°F12.1°C 95% Calm Calm -- 29.89 in1012.2 mb 0.01 in0.3 mm 0.00 in0.0 mm 0.05 in1.3 mm
05:03 AM 55.2°F12.9°C 53.8°F12.1°C 95% Calm Calm -- 29.89 in1012.2 mb 0.01 in0.3 mm 0.00 in0.0 mm 0.05 in1.3 mm
05:08 AM 55.2°F12.9°C 53.8°F12.1°C 95% Calm Calm -- 29.89 in1012.2 mb 0.00 in0.0 mm 0.00 in0.0 mm 0.05 in1.3 mm
05:13 AM 55.2°F12.9°C 53.8°F12.1°C 95% Calm Calm -- 29.89 in1012.2 mb 0.01 in0.3 mm 0.12 in3.0 mm 0.06 in1.5 mm
05:18 AM 55.2°F12.9°C 53.8°F12.1°C 95% Calm Calm -- 29.89 in1012.2 mb 0.01 in0.3 mm 0.00 in0.0 mm 0.06 in1.5 mm
05:23 AM 55.2°F12.9°C 53.8°F12.1°C 95% Calm Calm 1.1 mph1.8 kmh 29.89 in1012.2 mb 0.01 in0.3 mm 0.00 in0.0 mm 0.06 in1.5 mm
05:28 AM 55.2°F12.9°C 53.8°F12.1°C 95% 0.2 mph SSW0.3 kmh SSW 1.1 mph1.8 kmh 29.90 in1012.5 mb 0.01 in0.3 mm 0.00 in0.0 mm 0.06 in1.5 mm
05:33 AM 55.2°F12.9°C 53.8°F12.1°C 95% 1.3 mph S2.1 kmh S 3.1 mph5.0 kmh 29.90 in1012.5 mb 0.01 in0.3 mm 0.00 in0.0 mm 0.06 in1.5 mm
05:38 AM 55.4°F13.0°C 54.0°F12.2°C 95% 1.3 mph SW2.1 kmh SW 2.0 mph3.2 kmh 29.90 in1012.5 mb 0.01 in0.3 mm 0.00 in0.0 mm 0.06 in1.5 mm
05:43 AM 55.4°F13.0°C 54.0°F12.2°C 95% 1.1 mph SE1.8 kmh SE 5.4 mph8.7 kmh 29.90 in1012.5 mb 0.01 in0.3 mm 0.00 in0.0 mm 0.06 in1.5 mm
05:48 AM 55.2°F12.9°C 53.8°F12.1°C 95% 3.6 mph SE5.8 kmh SE 6.3 mph10.1 kmh 29.91 in1012.9 mb 0.01 in0.3 mm 0.00 in0.0 mm 0.06 in1.5 mm
05:53 AM 55.0°F12.8°C 53.6°F12.0°C 95% 3.1 mph SE5.0 kmh SE 7.4 mph11.9 kmh 29.91 in1012.9 mb 0.01 in0.3 mm 0.00 in0.0 mm 0.06 in1.5 mm
05:58 AM 55.2°F12.9°C 53.8°F12.1°C 95% 0.2 mph SSE0.3 kmh SSE 3.1 mph5.0 kmh 29.91 in1012.9 mb 0.02 in0.5 mm 0.12 in3.0 mm 0.07 in1.8 mm
06:03 AM 55.2°F12.9°C 53.8°F12.1°C 95% 0.7 mph SE1.1 kmh SE 3.1 mph5.0 kmh 29.91 in1012.9 mb 0.02 in0.5 mm 0.00 in0.0 mm 0.07 in1.8 mm
06:08 AM 55.4°F13.0°C 54.0°F12.2°C 95% 0.4 mph SE0.6 kmh SE 3.1 mph5.0 kmh 29.91 in1012.9 mb 0.02 in0.5 mm 0.00 in0.0 mm 0.07 in1.8 mm
06:13 AM 55.6°F13.1°C 54.1°F12.3°C 95% 0.9 mph SSW1.4 kmh SSW 3.1 mph5.0 kmh 29.91 in1012.9 mb 0.01 in0.3 mm 0.00 in0.0 mm 0.07 in1.8 mm
06:18 AM 55.6°F13.1°C 54.1°F12.3°C 95% 1.3 mph SSW2.1 kmh SSW 4.3 mph6.9 kmh 29.92 in1013.2 mb 0.02 in0.5 mm 0.12 in3.0 mm 0.08 in2.0 mm
06:23 AM 55.6°F13.1°C 54.1°F12.3°C 95% 1.1 mph ESE1.8 kmh ESE 4.3 mph6.9 kmh 29.92 in1013.2 mb 0.02 in0.5 mm 0.00 in0.0 mm 0.08 in2.0 mm
06:28 AM 55.6°F13.1°C 54.1°F12.3°C 95% 0.7 mph SSE1.1 kmh SSE 2.0 mph3.2 kmh 29.92 in1013.2 mb 0.02 in0.5 mm 0.00 in0.0 mm 0.08 in2.0 mm
06:33 AM 55.8°F13.2°C 54.7°F12.6°C 96% Calm Calm 2.0 mph3.2 kmh 29.93 in1013.5 mb 0.02 in0.5 mm 0.00 in0.0 mm 0.08 in2.0 mm
06:38 AM 55.8°F13.2°C 54.3°F12.4°C 95% 0.9 mph SSW1.4 kmh SSW 4.3 mph6.9 kmh 29.93 in1013.5 mb 0.02 in0.5 mm 0.00 in0.0 mm 0.08 in2.0 mm
06:43 AM 55.8°F13.2°C 54.3°F12.4°C 95% 0.2 mph SSE0.3 kmh SSE 3.1 mph5.0 kmh 29.93 in1013.5 mb 0.03 in0.8 mm 0.12 in3.0 mm 0.09 in2.3 mm
06:48 AM 55.9°F13.3°C 54.9°F12.7°C 96% 0.7 mph SE1.1 kmh SE 3.1 mph5.0 kmh 29.93 in1013.5 mb 0.03 in0.8 mm 0.00 in0.0 mm 0.09 in2.3 mm
06:53 AM 56.1°F13.4°C 55.0°F12.8°C 96% 0.4 mph S0.6 kmh S 3.1 mph5.0 kmh 29.93 in1013.5 mb 0.03 in0.8 mm 0.00 in0.0 mm 0.09 in2.3 mm
06:58 AM 56.1°F13.4°C 54.7°F12.6°C 95% 1.3 mph SE2.1 kmh SE 3.1 mph5.0 kmh 29.93 in1013.5 mb 0.02 in0.5 mm 0.00 in0.0 mm 0.09 in2.3 mm
07:03 AM 55.9°F13.3°C 54.5°F12.5°C 95% 2.0 mph SE3.2 kmh SE 4.3 mph6.9 kmh 29.93 in1013.5 mb 0.03 in0.8 mm 0.01 in0.3 mm 0.10 in2.5 mm
07:08 AM 56.1°F13.4°C 55.0°F12.8°C 96% Calm Calm 3.1 mph5.0 kmh 29.94 in1013.9 mb 0.03 in0.8 mm 0.00 in0.0 mm 0.10 in2.5 mm
07:13 AM 56.1°F13.4°C 55.0°F12.8°C 96% 0.7 mph S1.1 kmh S 3.1 mph5.0 kmh 29.94 in1013.9 mb 0.03 in0.8 mm 0.00 in0.0 mm 0.10 in2.5 mm
07:18 AM 56.1°F13.4°C 54.7°F12.6°C 95% Calm Calm 3.1 mph5.0 kmh 29.94 in1013.9 mb 0.02 in0.5 mm 0.00 in0.0 mm 0.11 in2.8 mm
07:23 AM 55.9°F13.3°C 54.5°F12.5°C 95% 2.7 mph S4.3 kmh S 5.4 mph8.7 kmh 29.94 in1013.9 mb 0.03 in0.8 mm 0.12 in3.0 mm 0.11 in2.8 mm
07:28 AM 55.9°F13.3°C 54.5°F12.5°C 95% 0.7 mph SE1.1 kmh SE 4.3 mph6.9 kmh 29.94 in1013.9 mb 0.03 in0.8 mm 0.00 in0.0 mm 0.11 in2.8 mm
07:33 AM 56.1°F13.4°C 55.0°F12.8°C 96% 1.6 mph SE2.6 kmh SE 4.3 mph6.9 kmh 29.94 in1013.9 mb 0.03 in0.8 mm 0.00 in0.0 mm 0.11 in2.8 mm
07:38 AM 56.5°F13.6°C 55.4°F13.0°C 96% 0.7 mph SE1.1 kmh SE 3.1 mph5.0 kmh 29.94 in1013.9 mb 0.03 in0.8 mm 0.00 in0.0 mm 0.11 in2.8 mm
07:43 AM 56.5°F13.6°C 55.4°F13.0°C 96% 2.7 mph SE4.3 kmh SE 4.3 mph6.9 kmh 29.94 in1013.9 mb 0.02 in0.5 mm 0.00 in0.0 mm 0.11 in2.8 mm
07:48 AM 56.5°F13.6°C 55.0°F12.8°C 95% 1.6 mph SE2.6 kmh SE 4.3 mph6.9 kmh 29.95 in1014.2 mb 0.02 in0.5 mm 0.00 in0.0 mm 0.11 in2.8 mm
07:53 AM 56.7°F13.7°C 55.6°F13.1°C 96% Calm Calm 4.3 mph6.9 kmh 29.95 in1014.2 mb 0.02 in0.5 mm 0.00 in0.0 mm 0.11 in2.8 mm
07:58 AM 56.8°F13.8°C 55.8°F13.2°C 96% 2.7 mph SSE4.3 kmh SSE 4.3 mph6.9 kmh 29.95 in1014.2 mb 0.02 in0.5 mm 0.00 in0.0 mm 0.11 in2.8 mm
08:03 AM 56.8°F13.8°C 55.4°F13.0°C 95% 1.3 mph S2.1 kmh S 4.3 mph6.9 kmh 29.95 in1014.2 mb 0.01 in0.3 mm 0.00 in0.0 mm 0.11 in2.8 mm
08:08 AM 56.8°F13.8°C 55.4°F13.0°C 95% 1.1 mph S1.8 kmh S 3.1 mph5.0 kmh 29.95 in1014.2 mb 0.01 in0.3 mm 0.00 in0.0 mm 0.11 in2.8 mm
08:13 AM 57.0°F13.9°C 55.9°F13.3°C 96% 0.2 mph SE0.3 kmh SE 3.1 mph5.0 kmh 29.95 in1014.2 mb 0.02 in0.5 mm 0.12 in3.0 mm 0.12 in3.0 mm
08:18 AM 56.8°F13.8°C 55.4°F13.0°C 95% 2.7 mph SSW4.3 kmh SSW 5.4 mph8.7 kmh 29.95 in1014.2 mb 0.03 in0.8 mm 0.12 in3.0 mm 0.13 in3.3 mm
08:23 AM 56.7°F13.7°C 55.2°F12.9°C 95% 2.7 mph SW4.3 kmh SW 5.4 mph8.7 kmh 29.95 in1014.2 mb 0.02 in0.5 mm 0.00 in0.0 mm 0.13 in3.3 mm
08:28 AM 56.7°F13.7°C 55.2°F12.9°C 95% 2.5 mph SSE4.0 kmh SSE 5.4 mph8.7 kmh 29.95 in1014.2 mb 0.02 in0.5 mm 0.00 in0.0 mm 0.13 in3.3 mm
08:33 AM 56.7°F13.7°C 55.2°F12.9°C 95% 2.9 mph WSW4.7 kmh WSW 6.3 mph10.1 kmh 29.96 in1014.6 mb 0.02 in0.5 mm 0.00 in0.0 mm 0.13 in3.3 mm
08:38 AM 56.7°F13.7°C 55.2°F12.9°C 95% 4.7 mph SW7.6 kmh SW 7.4 mph11.9 kmh 29.96 in1014.6 mb 0.02 in0.5 mm 0.00 in0.0 mm 0.13 in3.3 mm
08:43 AM 56.7°F13.7°C 55.2°F12.9°C 95% 2.2 mph WSW3.5 kmh WSW 6.3 mph10.1 kmh 29.96 in1014.6 mb 0.02 in0.5 mm 0.00 in0.0 mm 0.13 in3.3 mm
08:48 AM 56.7°F13.7°C 55.2°F12.9°C 95% 3.1 mph WSW5.0 kmh WSW 6.3 mph10.1 kmh 29.96 in1014.6 mb 0.02 in0.5 mm 0.00 in0.0 mm 0.13 in3.3 mm
08:53 AM 56.8°F13.8°C 55.4°F13.0°C 95% 2.7 mph WSW4.3 kmh WSW 5.4 mph8.7 kmh 29.96 in1014.6 mb 0.02 in0.5 mm 0.00 in0.0 mm 0.13 in3.3 mm
08:58 AM 57.0°F13.9°C 55.6°F13.1°C 95% 2.7 mph SW4.3 kmh SW 5.4 mph8.7 kmh 29.96 in1014.6 mb 0.02 in0.5 mm 0.00 in0.0 mm 0.13 in3.3 mm
09:03 AM 57.4°F14.1°C 55.9°F13.3°C 95% 4.7 mph SSW7.6 kmh SSW 7.4 mph11.9 kmh 29.96 in1014.6 mb 0.02 in0.5 mm 0.00 in0.0 mm 0.13 in3.3 mm
09:08 AM 57.4°F14.1°C 55.9°F13.3°C 95% 4.3 mph SSW6.9 kmh SSW 7.4 mph11.9 kmh 29.96 in1014.6 mb 0.02 in0.5 mm 0.00 in0.0 mm 0.13 in3.3 mm
09:13 AM 57.4°F14.1°C 55.6°F13.1°C 94% 2.5 mph S4.0 kmh S 5.4 mph8.7 kmh 29.96 in1014.6 mb 0.01 in0.3 mm 0.00 in0.0 mm 0.13 in3.3 mm
09:18 AM 57.6°F14.2°C 55.8°F13.2°C 94% 3.1 mph WSW5.0 kmh WSW 6.3 mph10.1 kmh 29.96 in1014.6 mb 0.00 in0.0 mm 0.00 in0.0 mm 0.13 in3.3 mm
09:23 AM 57.7°F14.3°C 56.3°F13.5°C 95% 2.9 mph SW4.7 kmh SW 6.3 mph10.1 kmh 29.96 in1014.6 mb 0.00 in0.0 mm 0.00 in0.0 mm 0.13 in3.3 mm
09:28 AM 57.7°F14.3°C 55.9°F13.3°C 94% 2.0 mph SW3.2 kmh SW 6.3 mph10.1 kmh 29.96 in1014.6 mb 0.00 in0.0 mm 0.00 in0.0 mm 0.13 in3.3 mm
09:33 AM 58.1°F14.5°C 56.3°F13.5°C 94% 3.4 mph SW5.5 kmh SW 6.3 mph10.1 kmh 29.96 in1014.6 mb 0.00 in0.0 mm 0.00 in0.0 mm 0.13 in3.3 mm
09:38 AM 58.6°F14.8°C 57.2°F14.0°C 95% 2.5 mph SW4.0 kmh SW 6.3 mph10.1 kmh 29.96 in1014.6 mb 0.00 in0.0 mm 0.00 in0.0 mm 0.13 in3.3 mm
09:43 AM 58.8°F14.9°C 56.8°F13.8°C 93% 4.3 mph SW6.9 kmh SW 6.3 mph10.1 kmh 29.96 in1014.6 mb 0.00 in0.0 mm 0.00 in0.0 mm 0.13 in3.3 mm
09:48 AM 58.8°F14.9°C 56.8°F13.8°C 93% 3.4 mph SW5.5 kmh SW 8.5 mph13.7 kmh 29.96 in1014.6 mb 0.00 in0.0 mm 0.00 in0.0 mm 0.13 in3.3 mm
09:53 AM 59.4°F15.2°C 57.4°F14.1°C 93% 2.7 mph WSW4.3 kmh WSW 7.4 mph11.9 kmh 29.96 in1014.6 mb 0.00 in0.0 mm 0.00 in0.0 mm 0.13 in3.3 mm
09:58 AM 59.5°F15.3°C 57.2°F14.0°C 92% 0.9 mph SSW1.4 kmh SSW 5.4 mph8.7 kmh 29.96 in1014.6 mb 0.00 in0.0 mm 0.00 in0.0 mm 0.13 in3.3 mm
10:03 AM 60.1°F15.6°C 57.4°F14.1°C 91% 4.3 mph SW6.9 kmh SW 7.4 mph11.9 kmh 29.96 in1014.6 mb 0.00 in0.0 mm 0.00 in0.0 mm 0.13 in3.3 mm
10:08 AM 60.1°F15.6°C 57.4°F14.1°C 91% 3.8 mph SW6.1 kmh SW 8.5 mph13.7 kmh 29.96 in1014.6 mb 0.00 in0.0 mm 0.00 in0.0 mm 0.13 in3.3 mm
10:13 AM 60.3°F15.7°C 57.0°F13.9°C 89% 4.5 mph WNW7.2 kmh WNW 8.5 mph13.7 kmh 29.96 in1014.6 mb 0.00 in0.0 mm 0.00 in0.0 mm 0.13 in3.3 mm
10:18 AM 60.1°F15.6°C 56.8°F13.8°C 89% 2.7 mph WNW4.3 kmh WNW 8.5 mph13.7 kmh 29.96 in1014.6 mb 0.00 in0.0 mm 0.00 in0.0 mm 0.13 in3.3 mm
10:23 AM 60.1°F15.6°C 56.8°F13.8°C 89% 2.5 mph W4.0 kmh W 6.3 mph10.1 kmh 29.97 in1014.9 mb 0.00 in0.0 mm 0.00 in0.0 mm 0.13 in3.3 mm
10:28 AM 59.7°F15.4°C 56.5°F13.6°C 89% 2.7 mph NW4.3 kmh NW 7.4 mph11.9 kmh 29.96 in1014.6 mb 0.00 in0.0 mm 0.00 in0.0 mm 0.13 in3.3 mm
10:33 AM 59.4°F15.2°C 56.5°F13.6°C 90% 3.1 mph SSW5.0 kmh SSW 7.4 mph11.9 kmh 29.97 in1014.9 mb 0.00 in0.0 mm 0.00 in0.0 mm 0.13 in3.3 mm
10:38 AM 59.0°F15.0°C 55.8°F13.2°C 89% 3.6 mph WNW5.8 kmh WNW 10.5 mph16.9 kmh 29.97 in1014.9 mb 0.00 in0.0 mm 0.00 in0.0 mm 0.13 in3.3 mm
10:43 AM 58.6°F14.8°C 55.8°F13.2°C 90% 2.9 mph WNW4.7 kmh WNW 7.4 mph11.9 kmh 29.97 in1014.9 mb 0.00 in0.0 mm 0.00 in0.0 mm 0.13 in3.3 mm
10:48 AM 58.3°F14.6°C 55.4°F13.0°C 90% 2.7 mph NW4.3 kmh NW 6.3 mph10.1 kmh 29.97 in1014.9 mb 0.00 in0.0 mm 0.00 in0.0 mm 0.13 in3.3 mm
10:53 AM 57.9°F14.4°C 55.2°F12.9°C 91% 1.6 mph NW2.6 kmh NW 6.3 mph10.1 kmh 29.97 in1014.9 mb 0.00 in0.0 mm 0.00 in0.0 mm 0.13 in3.3 mm
10:58 AM 57.9°F14.4°C 55.2°F12.9°C 91% 2.9 mph WNW4.7 kmh WNW 5.4 mph8.7 kmh 29.97 in1014.9 mb 0.00 in0.0 mm 0.00 in0.0 mm 0.13 in3.3 mm
11:03 AM 57.7°F14.3°C 55.2°F12.9°C 91% 4.0 mph NW6.4 kmh NW 8.5 mph13.7 kmh 29.97 in1014.9 mb 0.00 in0.0 mm 0.00 in0.0 mm 0.13 in3.3 mm
11:08 AM 57.9°F14.4°C 55.6°F13.1°C 92% 2.0 mph NW3.2 kmh NW 4.3 mph6.9 kmh 29.97 in1014.9 mb 0.00 in0.0 mm 0.00 in0.0 mm 0.13 in3.3 mm
11:13 AM 57.9°F14.4°C 55.6°F13.1°C 92% 0.7 mph WNW1.1 kmh WNW 4.3 mph6.9 kmh 29.97 in1014.9 mb 0.00 in0.0 mm 0.00 in0.0 mm 0.13 in3.3 mm
11:18 AM 58.3°F14.6°C 56.3°F13.5°C 93% 0.2 mph NW0.3 kmh NW 2.0 mph3.2 kmh 29.96 in1014.6 mb 0.00 in0.0 mm 0.00 in0.0 mm 0.13 in3.3 mm
11:23 AM 58.1°F14.5°C 55.4°F13.0°C 91% 1.8 mph NW2.9 kmh NW 5.4 mph8.7 kmh 29.96 in1014.6 mb 0.00 in0.0 mm 0.00 in0.0 mm 0.13 in3.3 mm
11:28 AM 58.5°F14.7°C 56.1°F13.4°C 92% 0.4 mph WSW0.6 kmh WSW 4.3 mph6.9 kmh 29.96 in1014.6 mb 0.00 in0.0 mm 0.00 in0.0 mm 0.13 in3.3 mm
11:33 AM 58.5°F14.7°C 55.8°F13.2°C 91% 2.5 mph W4.0 kmh W 4.3 mph6.9 kmh 29.96 in1014.6 mb 0.00 in0.0 mm 0.00 in0.0 mm 0.13 in3.3 mm
11:38 AM 58.5°F14.7°C 55.8°F13.2°C 91% 2.9 mph NNW4.7 kmh NNW 6.3 mph10.1 kmh 29.96 in1014.6 mb 0.00 in0.0 mm 0.00 in0.0 mm 0.13 in3.3 mm
11:43 AM 58.3°F14.6°C 55.6°F13.1°C 91% 1.8 mph WSW2.9 kmh WSW 8.5 mph13.7 kmh 29.96 in1014.6 mb 0.00 in0.0 mm 0.00 in0.0 mm 0.13 in3.3 mm
11:48 AM 58.5°F14.7°C 56.1°F13.4°C 92% 1.3 mph WNW2.1 kmh WNW 7.4 mph11.9 kmh 29.96 in1014.6 mb 0.00 in0.0 mm 0.00 in0.0 mm 0.13 in3.3 mm
11:53 AM 58.3°F14.6°C 55.6°F13.1°C 91% 3.8 mph NW6.1 kmh NW 5.4 mph8.7 kmh 29.96 in1014.6 mb 0.00 in0.0 mm 0.00 in0.0 mm 0.13 in3.3 mm
11:58 AM 58.3°F14.6°C 55.6°F13.1°C 91% 1.8 mph WSW2.9 kmh WSW 8.5 mph13.7 kmh 29.96 in1014.6 mb 0.00 in0.0 mm 0.00 in0.0 mm 0.13 in3.3 mm
12:03 PM 58.5°F14.7°C 55.8°F13.2°C 91% 4.0 mph SW6.4 kmh SW 7.4 mph11.9 kmh 29.96 in1014.6 mb 0.00 in0.0 mm 0.00 in0.0 mm 0.13 in3.3 mm
12:08 PM 58.5°F14.7°C 55.8°F13.2°C 91% 4.0 mph W6.4 kmh W 8.5 mph13.7 kmh 29.96 in1014.6 mb 0.00 in0.0 mm 0.00 in0.0 mm 0.13 in3.3 mm
12:13 PM 58.6°F14.8°C 55.9°F13.3°C 91% 3.6 mph WNW5.8 kmh WNW 7.4 mph11.9 kmh 29.96 in1014.6 mb 0.00 in0.0 mm 0.00 in0.0 mm 0.13 in3.3 mm
12:18 PM 58.6°F14.8°C 55.8°F13.2°C 90% 4.5 mph WNW7.2 kmh WNW 8.5 mph13.7 kmh 29.96 in1014.6 mb 0.00 in0.0 mm 0.00 in0.0 mm 0.13 in3.3 mm
12:23 PM 58.6°F14.8°C 55.4°F13.0°C 89% 2.9 mph NW4.7 kmh NW 8.5 mph13.7 kmh 29.96 in1014.6 mb 0.00 in0.0 mm 0.00 in0.0 mm 0.13 in3.3 mm
12:28 PM 58.8°F14.9°C 55.9°F13.3°C 90% 1.6 mph SE2.6 kmh SE 4.3 mph6.9 kmh 29.96 in1014.6 mb 0.00 in0.0 mm 0.00 in0.0 mm 0.13 in3.3 mm
12:33 PM 58.8°F14.9°C 55.9°F13.3°C 90% 2.2 mph NNW3.5 kmh NNW 4.3 mph6.9 kmh 29.96 in1014.6 mb 0.00 in0.0 mm 0.00 in0.0 mm 0.13 in3.3 mm
12:38 PM 58.8°F14.9°C 55.9°F13.3°C 90% 0.4 mph SW0.6 kmh SW 5.4 mph8.7 kmh 29.96 in1014.6 mb 0.00 in0.0 mm 0.00 in0.0 mm 0.13 in3.3 mm
12:43 PM 59.0°F15.0°C 56.1°F13.4°C 90% 3.8 mph WSW6.1 kmh WSW 7.4 mph11.9 kmh 29.96 in1014.6 mb 0.00 in0.0 mm 0.00 in0.0 mm 0.13 in3.3 mm
12:48 PM 59.0°F15.0°C 56.1°F13.4°C 90% 3.4 mph WSW5.5 kmh WSW 6.3 mph10.1 kmh 29.96 in1014.6 mb 0.00 in0.0 mm 0.00 in0.0 mm 0.13 in3.3 mm
12:53 PM 58.8°F14.9°C 55.9°F13.3°C 90% 3.8 mph WSW6.1 kmh WSW 7.4 mph11.9 kmh 29.96 in1014.6 mb 0.00 in0.0 mm 0.00 in0.0 mm 0.13 in3.3 mm
12:58 PM 58.8°F14.9°C 55.9°F13.3°C 90% 3.6 mph W5.8 kmh W 7.4 mph11.9 kmh 29.96 in1014.6 mb 0.00 in0.0 mm 0.00 in0.0 mm 0.13 in3.3 mm
01:03 PM 58.8°F14.9°C 55.9°F13.3°C 90% 2.7 mph NW4.3 kmh NW 7.4 mph11.9 kmh 29.96 in1014.6 mb 0.00 in0.0 mm 0.00 in0.0 mm 0.13 in3.3 mm
01:08 PM 58.6°F14.8°C 55.4°F13.0°C 89% 4.0 mph WSW6.4 kmh WSW 11.6 mph18.7 kmh 29.95 in1014.2 mb 0.00 in0.0 mm 0.00 in0.0 mm 0.13 in3.3 mm
01:13 PM 58.6°F14.8°C 55.8°F13.2°C 90% 3.6 mph SW5.8 kmh SW 7.4 mph11.9 kmh 29.95 in1014.2 mb 0.00 in0.0 mm 0.00 in0.0 mm 0.13 in3.3 mm
01:18 PM 58.6°F14.8°C 55.8°F13.2°C 90% 4.5 mph NW7.2 kmh NW 8.5 mph13.7 kmh 29.96 in1014.6 mb 0.00 in0.0 mm 0.00 in0.0 mm 0.13 in3.3 mm
01:23 PM 58.3°F14.6°C 55.0°F12.8°C 89% 3.8 mph WSW6.1 kmh WSW 8.5 mph13.7 kmh 29.96 in1014.6 mb 0.00 in0.0 mm 0.00 in0.0 mm 0.13 in3.3 mm
01:28 PM 58.3°F14.6°C 55.4°F13.0°C 90% 2.0 mph WSW3.2 kmh WSW 6.3 mph10.1 kmh 29.96 in1014.6 mb 0.00 in0.0 mm 0.00 in0.0 mm 0.13 in3.3 mm
01:33 PM 58.1°F14.5°C 55.4°F13.0°C 91% 2.5 mph SW4.0 kmh SW 7.4 mph11.9 kmh 29.95 in1014.2 mb 0.00 in0.0 mm 0.00 in0.0 mm 0.13 in3.3 mm
01:38 PM 58.5°F14.7°C 55.8°F13.2°C 91% 2.0 mph SW3.2 kmh SW 4.3 mph6.9 kmh 29.95 in1014.2 mb 0.00 in0.0 mm 0.00 in0.0 mm 0.13 in3.3 mm
01:43 PM 58.6°F14.8°C 55.8°F13.2°C 90% 3.6 mph WNW5.8 kmh WNW 7.4 mph11.9 kmh 29.94 in1013.9 mb 0.00 in0.0 mm 0.00 in0.0 mm 0.13 in3.3 mm
01:48 PM 58.6°F14.8°C 55.8°F13.2°C 90% 2.5 mph WSW4.0 kmh WSW 5.4 mph8.7 kmh 29.95 in1014.2 mb 0.00 in0.0 mm 0.00 in0.0 mm 0.13 in3.3 mm
01:53 PM 58.8°F14.9°C 55.9°F13.3°C 90% 3.1 mph WNW5.0 kmh WNW 6.3 mph10.1 kmh 29.95 in1014.2 mb 0.00 in0.0 mm 0.00 in0.0 mm 0.13 in3.3 mm
01:58 PM 58.8°F14.9°C 55.6°F13.1°C 89% 2.9 mph WNW4.7 kmh WNW 7.4 mph11.9 kmh 29.95 in1014.2 mb 0.00 in0.0 mm 0.00 in0.0 mm 0.13 in3.3 mm
02:03 PM 58.8°F14.9°C 55.6°F13.1°C 89% 3.4 mph W5.5 kmh W 7.4 mph11.9 kmh 29.95 in1014.2 mb 0.00 in0.0 mm 0.00 in0.0 mm 0.13 in3.3 mm
02:08 PM 59.2°F15.1°C 55.9°F13.3°C 89% 3.8 mph WNW6.1 kmh WNW 9.6 mph15.4 kmh 29.95 in1014.2 mb 0.00 in0.0 mm 0.00 in0.0 mm 0.13 in3.3 mm
02:13 PM 59.0°F15.0°C 55.4°F13.0°C 88% 2.7 mph NW4.3 kmh NW 9.6 mph15.4 kmh 29.94 in1013.9 mb 0.00 in0.0 mm 0.00 in0.0 mm 0.13 in3.3 mm
02:18 PM 58.8°F14.9°C 55.0°F12.8°C 87% 3.8 mph W6.1 kmh W 7.4 mph11.9 kmh 29.94 in1013.9 mb 0.00 in0.0 mm 0.00 in0.0 mm 0.13 in3.3 mm
02:23 PM 59.2°F15.1°C 55.4°F13.0°C 87% 2.5 mph WNW4.0 kmh WNW 7.4 mph11.9 kmh 29.93 in1013.5 mb 0.00 in0.0 mm 0.00 in0.0 mm 0.13 in3.3 mm
02:28 PM 59.5°F15.3°C 55.4°F13.0°C 86% 3.1 mph NNE5.0 kmh NNE 7.4 mph11.9 kmh 29.93 in1013.5 mb 0.00 in0.0 mm 0.00 in0.0 mm 0.13 in3.3 mm
02:33 PM 59.9°F15.5°C 55.4°F13.0°C 85% 2.7 mph WSW4.3 kmh WSW 7.4 mph11.9 kmh 29.93 in1013.5 mb 0.00 in0.0 mm 0.00 in0.0 mm 0.13 in3.3 mm
02:38 PM 60.1°F15.6°C 55.2°F12.9°C 84% 2.9 mph W4.7 kmh W 6.3 mph10.1 kmh 29.93 in1013.5 mb 0.00 in0.0 mm 0.00 in0.0 mm 0.13 in3.3 mm
02:43 PM 60.3°F15.7°C 55.4°F13.0°C 84% 2.7 mph NW4.3 kmh NW 5.4 mph8.7 kmh 29.93 in1013.5 mb 0.00 in0.0 mm 0.00 in0.0 mm 0.13 in3.3 mm
02:48 PM 60.3°F15.7°C 54.3°F12.4°C 81% 2.5 mph SW4.0 kmh SW 7.4 mph11.9 kmh 29.93 in1013.5 mb 0.00 in0.0 mm 0.00 in0.0 mm 0.13 in3.3 mm
02:53 PM 60.3°F15.7°C 54.3°F12.4°C 81% 1.8 mph WSW2.9 kmh WSW 5.4 mph8.7 kmh 29.93 in1013.5 mb 0.00 in0.0 mm 0.00 in0.0 mm 0.13 in3.3 mm
02:58 PM 60.4°F15.8°C 54.5°F12.5°C 81% 1.1 mph WNW1.8 kmh WNW 5.4 mph8.7 kmh 29.93 in1013.5 mb 0.00 in0.0 mm 0.00 in0.0 mm 0.13 in3.3 mm
03:03 PM 60.3°F15.7°C 54.3°F12.4°C 81% 2.2 mph NW3.5 kmh NW 5.4 mph8.7 kmh 29.93 in1013.5 mb 0.00 in0.0 mm 0.00 in0.0 mm 0.13 in3.3 mm
03:08 PM 60.3°F15.7°C 53.8°F12.1°C 79% 3.8 mph WSW6.1 kmh WSW 5.4 mph8.7 kmh 29.93 in1013.5 mb 0.00 in0.0 mm 0.00 in0.0 mm 0.13 in3.3 mm
03:13 PM 60.3°F15.7°C 54.1°F12.3°C 80% 0.2 mph NW0.3 kmh NW 5.4 mph8.7 kmh 29.93 in1013.5 mb 0.00 in0.0 mm 0.00 in0.0 mm 0.13 in3.3 mm
03:19 PM 60.3°F15.7°C 54.1°F12.3°C 80% 3.8 mph W6.1 kmh W 6.3 mph10.1 kmh 29.93 in1013.5 mb 0.00 in0.0 mm 0.00 in0.0 mm 0.13 in3.3 mm
03:24 PM 60.3°F15.7°C 53.8°F12.1°C 79% 0.7 mph SW1.1 kmh SW 4.3 mph6.9 kmh 29.93 in1013.5 mb 0.00 in0.0 mm 0.00 in0.0 mm 0.13 in3.3 mm
03:29 PM 60.4°F15.8°C 54.3°F12.4°C 80% 2.2 mph SW3.5 kmh SW 4.3 mph6.9 kmh 29.92 in1013.2 mb 0.00 in0.0 mm 0.00 in0.0 mm 0.13 in3.3 mm
03:34 PM 60.3°F15.7°C 53.8°F12.1°C 79% 2.7 mph WNW4.3 kmh WNW 4.3 mph6.9 kmh 29.92 in1013.2 mb 0.00 in0.0 mm 0.00 in0.0 mm 0.13 in3.3 mm
03:39 PM 60.3°F15.7°C 54.3°F12.4°C 81% 3.4 mph WSW5.5 kmh WSW 6.3 mph10.1 kmh 29.92 in1013.2 mb 0.00 in0.0 mm 0.00 in0.0 mm 0.13 in3.3 mm
03:44 PM 60.1°F15.6°C 54.3°F12.4°C 81% 2.5 mph NW4.0 kmh NW 6.3 mph10.1 kmh 29.92 in1013.2 mb 0.00 in0.0 mm 0.00 in0.0 mm 0.13 in3.3 mm
03:49 PM 59.7°F15.4°C 54.0°F12.2°C 81% 1.6 mph NW2.6 kmh NW 5.4 mph8.7 kmh 29.92 in1013.2 mb 0.00 in0.0 mm 0.00 in0.0 mm 0.13 in3.3 mm
03:54 PM 59.5°F15.3°C 54.0°F12.2°C 82% 2.7 mph W4.3 kmh W 6.3 mph10.1 kmh 29.92 in1013.2 mb 0.00 in0.0 mm 0.00 in0.0 mm 0.13 in3.3 mm
03:59 PM 59.5°F15.3°C 54.0°F12.2°C 82% 2.7 mph WSW4.3 kmh WSW 5.4 mph8.7 kmh 29.92 in1013.2 mb 0.00 in0.0 mm 0.00 in0.0 mm 0.13 in3.3 mm
04:04 PM 59.4°F15.2°C 54.1°F12.3°C 83% 1.1 mph N1.8 kmh N 6.3 mph10.1 kmh 29.92 in1013.2 mb 0.00 in0.0 mm 0.00 in0.0 mm 0.13 in3.3 mm
04:09 PM 59.4°F15.2°C 54.1°F12.3°C 83% 1.6 mph NW2.6 kmh NW 6.3 mph10.1 kmh 29.92 in1013.2 mb 0.00 in0.0 mm 0.00 in0.0 mm 0.13 in3.3 mm
04:14 PM 59.2°F15.1°C 54.0°F12.2°C 83% 3.1 mph WNW5.0 kmh WNW 7.4 mph11.9 kmh 29.92 in1013.2 mb 0.00 in0.0 mm 0.00 in0.0 mm 0.13 in3.3 mm
04:19 PM 59.2°F15.1°C 54.3°F12.4°C 84% 1.6 mph W2.6 kmh W 6.3 mph10.1 kmh 29.92 in1013.2 mb 0.00 in0.0 mm 0.00 in0.0 mm 0.13 in3.3 mm
04:24 PM 58.8°F14.9°C 54.0°F12.2°C 84% 2.7 mph W4.3 kmh W 6.3 mph10.1 kmh 29.92 in1013.2 mb 0.00 in0.0 mm 0.00 in0.0 mm 0.13 in3.3 mm
04:29 PM 58.8°F14.9°C 54.0°F12.2°C 84% 2.0 mph NW3.2 kmh NW 5.4 mph8.7 kmh 29.92 in1013.2 mb 0.00 in0.0 mm 0.00 in0.0 mm 0.13 in3.3 mm
04:34 PM 58.8°F14.9°C 54.0°F12.2°C 84% 1.3 mph WSW2.1 kmh WSW 3.1 mph5.0 kmh 29.92 in1013.2 mb 0.00 in0.0 mm 0.00 in0.0 mm 0.13 in3.3 mm
04:39 PM 58.8°F14.9°C 54.0°F12.2°C 84% 3.4 mph NW5.5 kmh NW 6.3 mph10.1 kmh 29.92 in1013.2 mb 0.00 in0.0 mm 0.00 in0.0 mm 0.13 in3.3 mm
04:44 PM 59.0°F15.0°C 54.1°F12.3°C 84% 1.3 mph W2.1 kmh W 6.3 mph10.1 kmh 29.92 in1013.2 mb 0.00 in0.0 mm 0.00 in0.0 mm 0.13 in3.3 mm
04:49 PM 59.0°F15.0°C 53.8°F12.1°C 83% 2.5 mph NW4.0 kmh NW 6.3 mph10.1 kmh 29.92 in1013.2 mb 0.00 in0.0 mm 0.00 in0.0 mm 0.13 in3.3 mm
04:54 PM 59.2°F15.1°C 54.0°F12.2°C 83% 1.8 mph WNW2.9 kmh WNW 7.4 mph11.9 kmh 29.92 in1013.2 mb 0.00 in0.0 mm 0.00 in0.0 mm 0.13 in3.3 mm
04:59 PM 59.2°F15.1°C 54.0°F12.2°C 83% 1.6 mph SW2.6 kmh SW 7.4 mph11.9 kmh 29.92 in1013.2 mb 0.00 in0.0 mm 0.00 in0.0 mm 0.13 in3.3 mm
05:04 PM 59.0°F15.0°C 53.8°F12.1°C 83% 3.1 mph WNW5.0 kmh WNW 8.5 mph13.7 kmh 29.92 in1013.2 mb 0.00 in0.0 mm 0.00 in0.0 mm 0.13 in3.3 mm
05:09 PM 59.0°F15.0°C 53.8°F12.1°C 83% 2.9 mph NW4.7 kmh NW 4.3 mph6.9 kmh 29.92 in1013.2 mb 0.00 in0.0 mm 0.00 in0.0 mm 0.13 in3.3 mm
05:14 PM 59.0°F15.0°C 53.8°F12.1°C 83% 1.6 mph NW2.6 kmh NW 6.3 mph10.1 kmh 29.91 in1012.9 mb 0.00 in0.0 mm 0.00 in0.0 mm 0.13 in3.3 mm
05:19 PM 58.8°F14.9°C 53.6°F12.0°C 83% 3.4 mph NW5.5 kmh NW 6.3 mph10.1 kmh 29.91 in1012.9 mb 0.00 in0.0 mm 0.00 in0.0 mm 0.13 in3.3 mm
05:24 PM 58.8°F14.9°C 53.6°F12.0°C 83% 0.2 mph NW0.3 kmh NW 4.3 mph6.9 kmh 29.91 in1012.9 mb 0.00 in0.0 mm 0.00 in0.0 mm 0.13 in3.3 mm
05:29 PM 58.8°F14.9°C 53.4°F11.9°C 82% 1.1 mph W1.8 kmh W 3.1 mph5.0 kmh 29.91 in1012.9 mb 0.00 in0.0 mm 0.00 in0.0 mm 0.13 in3.3 mm
05:34 PM 58.8°F14.9°C 52.7°F11.5°C 80% 1.8 mph SW2.9 kmh SW 3.1 mph5.0 kmh 29.91 in1012.9 mb 0.00 in0.0 mm 0.00 in0.0 mm 0.13 in3.3 mm
05:39 PM 58.8°F14.9°C 52.3°F11.3°C 79% 1.6 mph WSW2.6 kmh WSW 4.3 mph6.9 kmh 29.91 in1012.9 mb 0.00 in0.0 mm 0.00 in0.0 mm 0.13 in3.3 mm
05:44 PM 59.0°F15.0°C 52.2°F11.2°C 78% 0.2 mph NW0.3 kmh NW 4.3 mph6.9 kmh 29.91 in1012.9 mb 0.00 in0.0 mm 0.00 in0.0 mm 0.13 in3.3 mm
05:49 PM 59.2°F15.1°C 52.3°F11.3°C 78% 0.9 mph SW1.4 kmh SW 3.1 mph5.0 kmh 29.92 in1013.2 mb 0.00 in0.0 mm 0.00 in0.0 mm 0.13 in3.3 mm
05:54 PM 59.2°F15.1°C 52.3°F11.3°C 78% 0.2 mph W0.3 kmh W 2.0 mph3.2 kmh 29.91 in1012.9 mb 0.00 in0.0 mm 0.00 in0.0 mm 0.13 in3.3 mm
05:59 PM 59.2°F15.1°C 52.3°F11.3°C 78% 1.3 mph WSW2.1 kmh WSW 3.1 mph5.0 kmh 29.91 in1012.9 mb 0.00 in0.0 mm 0.00 in0.0 mm 0.13 in3.3 mm
06:04 PM 59.0°F15.0°C 52.2°F11.2°C 78% 0.7 mph WSW1.1 kmh WSW 3.1 mph5.0 kmh 29.91 in1012.9 mb 0.00 in0.0 mm 0.00 in0.0 mm 0.13 in3.3 mm
06:09 PM 59.0°F15.0°C 52.2°F11.2°C 78% 1.6 mph NW2.6 kmh NW 4.3 mph6.9 kmh 29.91 in1012.9 mb 0.00 in0.0 mm 0.00 in0.0 mm 0.13 in3.3 mm
06:14 PM 58.8°F14.9°C 52.0°F11.1°C 78% Calm Calm 3.1 mph5.0 kmh 29.92 in1013.2 mb 0.00 in0.0 mm 0.00 in0.0 mm 0.13 in3.3 mm
06:19 PM 58.8°F14.9°C 52.0°F11.1°C 78% 2.0 mph NW3.2 kmh NW 5.4 mph8.7 kmh 29.92 in1013.2 mb 0.00 in0.0 mm 0.00 in0.0 mm 0.13 in3.3 mm
06:24 PM 58.8°F14.9°C 52.0°F11.1°C 78% 1.1 mph WSW1.8 kmh WSW 4.3 mph6.9 kmh 29.92 in1013.2 mb 0.00 in0.0 mm 0.00 in0.0 mm 0.13 in3.3 mm
06:29 PM 58.6°F14.8°C 51.8°F11.0°C 78% 1.8 mph WSW2.9 kmh WSW 4.3 mph6.9 kmh 29.92 in1013.2 mb 0.00 in0.0 mm 0.00 in0.0 mm 0.13 in3.3 mm
06:34 PM 58.6°F14.8°C 51.4°F10.8°C 77% 2.0 mph W3.2 kmh W 4.3 mph6.9 kmh 29.92 in1013.2 mb 0.00 in0.0 mm 0.00 in0.0 mm 0.13 in3.3 mm
06:39 PM 58.6°F14.8°C 51.8°F11.0°C 78% 1.8 mph WSW2.9 kmh WSW 5.4 mph8.7 kmh 29.92 in1013.2 mb 0.00 in0.0 mm 0.00 in0.0 mm 0.13 in3.3 mm
06:44 PM 58.6°F14.8°C 51.8°F11.0°C 78% 0.4 mph SSW0.6 kmh SSW 4.3 mph6.9 kmh 29.93 in1013.5 mb 0.00 in0.0 mm 0.00 in0.0 mm 0.13 in3.3 mm
06:49 PM 58.6°F14.8°C 52.2°F11.2°C 79% 1.8 mph W2.9 kmh W 4.3 mph6.9 kmh 29.92 in1013.2 mb 0.00 in0.0 mm 0.00 in0.0 mm 0.13 in3.3 mm
06:54 PM 58.6°F14.8°C 52.2°F11.2°C 79% 0.2 mph WSW0.3 kmh WSW 4.3 mph6.9 kmh 29.92 in1013.2 mb 0.00 in0.0 mm 0.00 in0.0 mm 0.13 in3.3 mm
06:59 PM 58.5°F14.7°C 52.0°F11.1°C 79% 2.0 mph W3.2 kmh W 5.4 mph8.7 kmh 29.92 in1013.2 mb 0.00 in0.0 mm 0.00 in0.0 mm 0.13 in3.3 mm
07:04 PM 58.5°F14.7°C 52.0°F11.1°C 79% 1.1 mph WSW1.8 kmh WSW 5.4 mph8.7 kmh 29.93 in1013.5 mb 0.00 in0.0 mm 0.00 in0.0 mm 0.13 in3.3 mm
07:09 PM 58.3°F14.6°C 51.8°F11.0°C 79% 1.8 mph W2.9 kmh W 4.3 mph6.9 kmh 29.93 in1013.5 mb 0.00 in0.0 mm 0.00 in0.0 mm 0.13 in3.3 mm
07:14 PM 58.3°F14.6°C 52.2°F11.2°C 80% 1.6 mph WSW2.6 kmh WSW 3.1 mph5.0 kmh 29.93 in1013.5 mb 0.00 in0.0 mm 0.00 in0.0 mm 0.13 in3.3 mm
07:19 PM 58.3°F14.6°C 52.2°F11.2°C 80% 0.7 mph W1.1 kmh W 3.1 mph5.0 kmh 29.93 in1013.5 mb 0.00 in0.0 mm 0.00 in0.0 mm 0.13 in3.3 mm
07:24 PM 58.1°F14.5°C 52.0°F11.1°C 80% 0.2 mph W0.3 kmh W 3.1 mph5.0 kmh 29.93 in1013.5 mb 0.00 in0.0 mm 0.00 in0.0 mm 0.13 in3.3 mm
07:29 PM 57.9°F14.4°C 52.2°F11.2°C 81% 0.7 mph W1.1 kmh W 3.1 mph5.0 kmh 29.93 in1013.5 mb 0.00 in0.0 mm 0.00 in0.0 mm 0.13 in3.3 mm
07:34 PM 57.9°F14.4°C 52.2°F11.2°C 81% Calm Calm 2.0 mph3.2 kmh 29.93 in1013.5 mb 0.00 in0.0 mm 0.00 in0.0 mm 0.13 in3.3 mm
07:39 PM 57.9°F14.4°C 52.2°F11.2°C 81% Calm Calm -- 29.93 in1013.5 mb 0.00 in0.0 mm 0.00 in0.0 mm 0.13 in3.3 mm
07:44 PM 57.9°F14.4°C 52.5°F11.4°C 82% Calm Calm 1.1 mph1.8 kmh 29.93 in1013.5 mb 0.00 in0.0 mm 0.00 in0.0 mm 0.13 in3.3 mm
07:49 PM 57.7°F14.3°C 52.3°F11.3°C 82% Calm Calm -- 29.93 in1013.5 mb 0.00 in0.0 mm 0.00 in0.0 mm 0.13 in3.3 mm
07:54 PM 57.7°F14.3°C 52.3°F11.3°C 82% Calm Calm -- 29.94 in1013.9 mb 0.00 in0.0 mm 0.00 in0.0 mm 0.13 in3.3 mm
07:59 PM 57.7°F14.3°C 52.3°F11.3°C 82% Calm Calm -- 29.93 in1013.5 mb 0.00 in0.0 mm 0.00 in0.0 mm 0.13 in3.3 mm
08:04 PM 57.7°F14.3°C 52.3°F11.3°C 82% 0.7 mph NW1.1 kmh NW 2.0 mph3.2 kmh 29.94 in1013.9 mb 0.00 in0.0 mm 0.00 in0.0 mm 0.13 in3.3 mm
08:09 PM 57.7°F14.3°C 52.3°F11.3°C 82% Calm Calm 1.1 mph1.8 kmh 29.94 in1013.9 mb 0.00 in0.0 mm 0.00 in0.0 mm 0.13 in3.3 mm
08:14 PM 57.7°F14.3°C 52.3°F11.3°C 82% Calm Calm -- 29.94 in1013.9 mb 0.00 in0.0 mm 0.00 in0.0 mm 0.13 in3.3 mm
08:19 PM 57.7°F14.3°C 52.3°F11.3°C 82% Calm Calm -- 29.94 in1013.9 mb 0.00 in0.0 mm 0.00 in0.0 mm 0.13 in3.3 mm
08:24 PM 57.6°F14.2°C 52.2°F11.2°C 82% Calm Calm -- 29.94 in1013.9 mb 0.00 in0.0 mm 0.00 in0.0 mm 0.13 in3.3 mm
08:29 PM 57.6°F14.2°C 52.2°F11.2°C 82% Calm Calm -- 29.94 in1013.9 mb 0.00 in0.0 mm 0.00 in0.0 mm 0.13 in3.3 mm
08:34 PM 57.6°F14.2°C 52.2°F11.2°C 82% Calm Calm -- 29.94 in1013.9 mb 0.00 in0.0 mm 0.00 in0.0 mm 0.13 in3.3 mm
08:39 PM 57.6°F14.2°C 52.2°F11.2°C 82% Calm Calm -- 29.94 in1013.9 mb 0.00 in0.0 mm 0.00 in0.0 mm 0.13 in3.3 mm
08:44 PM 57.6°F14.2°C 52.2°F11.2°C 82% Calm Calm -- 29.94 in1013.9 mb 0.00 in0.0 mm 0.00 in0.0 mm 0.13 in3.3 mm
08:49 PM 57.6°F14.2°C 52.2°F11.2°C 82% Calm Calm -- 29.94 in1013.9 mb 0.00 in0.0 mm 0.00 in0.0 mm 0.13 in3.3 mm
08:54 PM 57.6°F14.2°C 52.2°F11.2°C 82% Calm Calm -- 29.95 in1014.2 mb 0.00 in0.0 mm 0.00 in0.0 mm 0.13 in3.3 mm
08:59 PM 57.6°F14.2°C 52.2°F11.2°C 82% Calm Calm -- 29.95 in1014.2 mb 0.00 in0.0 mm 0.00 in0.0 mm 0.13 in3.3 mm
09:04 PM 57.6°F14.2°C 52.2°F11.2°C 82% Calm Calm -- 29.95 in1014.2 mb 0.00 in0.0 mm 0.00 in0.0 mm 0.13 in3.3 mm
09:09 PM 57.6°F14.2°C 52.2°F11.2°C 82% Calm Calm -- 29.95 in1014.2 mb 0.00 in0.0 mm 0.00 in0.0 mm 0.13 in3.3 mm
09:14 PM 57.4°F14.1°C 52.0°F11.1°C 82% Calm Calm -- 29.95 in1014.2 mb 0.00 in0.0 mm 0.00 in0.0 mm 0.13 in3.3 mm
09:19 PM 57.4°F14.1°C 52.0°F11.1°C 82% Calm Calm -- 29.94 in1013.9 mb 0.00 in0.0 mm 0.00 in0.0 mm 0.13 in3.3 mm
09:24 PM 57.4°F14.1°C 52.0°F11.1°C 82% Calm Calm -- 29.94 in1013.9 mb 0.00 in0.0 mm 0.00 in0.0 mm 0.13 in3.3 mm
09:29 PM 57.4°F14.1°C 52.3°F11.3°C 83% Calm Calm -- 29.94 in1013.9 mb 0.00 in0.0 mm 0.00 in0.0 mm 0.13 in3.3 mm
09:34 PM 57.4°F14.1°C 52.3°F11.3°C 83% Calm Calm -- 29.94 in1013.9 mb 0.00 in0.0 mm 0.00 in0.0 mm 0.13 in3.3 mm
09:39 PM 57.4°F14.1°C 52.3°F11.3°C 83% Calm Calm -- 29.95 in1014.2 mb 0.00 in0.0 mm 0.00 in0.0 mm 0.13 in3.3 mm
09:44 PM 57.2°F14.0°C 52.2°F11.2°C 83% Calm Calm -- 29.94 in1013.9 mb 0.00 in0.0 mm 0.00 in0.0 mm 0.13 in3.3 mm
09:49 PM 57.0°F13.9°C 52.0°F11.1°C 83% Calm Calm -- 29.95 in1014.2 mb 0.00 in0.0 mm 0.00 in0.0 mm 0.13 in3.3 mm
09:54 PM 57.0°F13.9°C 52.0°F11.1°C 83% Calm Calm -- 29.94 in1013.9 mb 0.00 in0.0 mm 0.00 in0.0 mm 0.13 in3.3 mm
09:59 PM 57.0°F13.9°C 52.0°F11.1°C 83% Calm Calm -- 29.94 in1013.9 mb 0.00 in0.0 mm 0.00 in0.0 mm 0.13 in3.3 mm
10:04 PM 57.0°F13.9°C 52.0°F11.1°C 83% Calm Calm -- 29.94 in1013.9 mb 0.00 in0.0 mm 0.00 in0.0 mm 0.13 in3.3 mm
10:09 PM 57.0°F13.9°C 52.0°F11.1°C 83% Calm Calm -- 29.94 in1013.9 mb 0.00 in0.0 mm 0.00 in0.0 mm 0.13 in3.3 mm
10:14 PM 57.0°F13.9°C 52.0°F11.1°C 83% Calm Calm -- 29.94 in1013.9 mb 0.00 in0.0 mm 0.00 in0.0 mm 0.13 in3.3 mm
10:19 PM 57.0°F13.9°C 52.0°F11.1°C 83% Calm Calm -- 29.94 in1013.9 mb 0.00 in0.0 mm 0.00 in0.0 mm 0.13 in3.3 mm
10:24 PM 57.2°F14.0°C 52.2°F11.2°C 83% Calm Calm -- 29.94 in1013.9 mb 0.00 in0.0 mm 0.00 in0.0 mm 0.13 in3.3 mm
10:29 PM 57.2°F14.0°C 52.3°F11.3°C 84% Calm Calm -- 29.94 in1013.9 mb 0.00 in0.0 mm 0.00 in0.0 mm 0.13 in3.3 mm
10:34 PM 57.2°F14.0°C 52.2°F11.2°C 83% Calm Calm -- 29.94 in1013.9 mb 0.00 in0.0 mm 0.00 in0.0 mm 0.13 in3.3 mm
10:39 PM 57.2°F14.0°C 52.2°F11.2°C 83% Calm Calm -- 29.94 in1013.9 mb 0.00 in0.0 mm 0.00 in0.0 mm 0.13 in3.3 mm
10:44 PM 57.4°F14.1°C 52.5°F11.4°C 84% Calm Calm -- 29.94 in1013.9 mb 0.00 in0.0 mm 0.00 in0.0 mm 0.13 in3.3 mm
10:49 PM 57.2°F14.0°C 52.3°F11.3°C 84% Calm Calm -- 29.94 in1013.9 mb 0.00 in0.0 mm 0.00 in0.0 mm 0.13 in3.3 mm
10:54 PM 57.0°F13.9°C 52.2°F11.2°C 84% Calm Calm -- 29.94 in1013.9 mb 0.00 in0.0 mm 0.00 in0.0 mm 0.13 in3.3 mm
10:59 PM 57.0°F13.9°C 52.2°F11.2°C 84% Calm Calm -- 29.94 in1013.9 mb 0.00 in0.0 mm 0.00 in0.0 mm 0.13 in3.3 mm
11:04 PM 57.0°F13.9°C 52.2°F11.2°C 84% Calm Calm -- 29.94 in1013.9 mb 0.00 in0.0 mm 0.00 in0.0 mm 0.13 in3.3 mm
11:09 PM 57.0°F13.9°C 52.5°F11.4°C 85% Calm Calm -- 29.94 in1013.9 mb 0.00 in0.0 mm 0.00 in0.0 mm 0.13 in3.3 mm
11:14 PM 57.0°F13.9°C 52.5°F11.4°C 85% Calm Calm -- 29.94 in1013.9 mb 0.00 in0.0 mm 0.00 in0.0 mm 0.13 in3.3 mm
11:19 PM 57.0°F13.9°C 52.5°F11.4°C 85% Calm Calm -- 29.94 in1013.9 mb 0.00 in0.0 mm 0.00 in0.0 mm 0.13 in3.3 mm
11:24 PM 57.0°F13.9°C 52.2°F11.2°C 84% Calm Calm -- 29.94 in1013.9 mb 0.00 in0.0 mm 0.00 in0.0 mm 0.13 in3.3 mm
11:29 PM 57.0°F13.9°C 52.2°F11.2°C 84% Calm Calm -- 29.94 in1013.9 mb 0.00 in0.0 mm 0.00 in0.0 mm 0.13 in3.3 mm
11:34 PM 57.0°F13.9°C 52.2°F11.2°C 84% Calm Calm -- 29.94 in1013.9 mb 0.00 in0.0 mm 0.00 in0.0 mm 0.13 in3.3 mm
11:39 PM 57.2°F14.0°C 52.3°F11.3°C 84% Calm Calm -- 29.95 in1014.2 mb 0.00 in0.0 mm 0.00 in0.0 mm 0.13 in3.3 mm
11:44 PM 57.2°F14.0°C 52.3°F11.3°C 84% Calm Calm -- 29.94 in1013.9 mb 0.00 in0.0 mm 0.00 in0.0 mm 0.13 in3.3 mm
11:49 PM 57.2°F14.0°C 52.3°F11.3°C 84% Calm Calm -- 29.95 in1014.2 mb 0.00 in0.0 mm 0.00 in0.0 mm 0.13 in3.3 mm
11:54 PM 57.2°F14.0°C 52.3°F11.3°C 84% Calm Calm -- 29.95 in1014.2 mb 0.00 in0.0 mm 0.00 in0.0 mm 0.13 in3.3 mm
11:59 PM 57.0°F13.9°C 52.2°F11.2°C 84% Calm Calm -- 29.95 in1014.2 mb 0.00 in0.0 mm 0.00 in0.0 mm 0.13 in3.3 mm